Bridgewater, Iowa
Current Conditions -  °F | °C
As of 12:35 PM on Thursday 29 Jan 2015 (Local Time) from KCSQ Reporting Station
Overcast Overcast  
Wind Chill: 21°   Ceiling: 2100
Heat Index: 34°   Visibility: 10mi
Dew Point: 27°   Wind: 25mph
Humidity: 75%   Direction: 340°NNW
Pressure: 30.32"   Gusts: 37mph
Location:  41.24°N, 94.67°W
Report Text: KCSQ 291835Z AUTO 34022G32KT 10SM OVC021 01/M03 A3032 RMK AO2
Loading
Personal Weather Stations






























Interactive Weather Map New forecast layout! Learn more

10-Day Weather Forecast

Advertisements
Track Severe Weather on mobile